Terminal Aerodrome Forecast
Issued by NWS Lake Charles, LA

Home | Current Version | Previous Version | Text Only | Print | Product List | Glossary On
Versions: 1 2 3 4 5 6 7 8 9 10 11 12 13 14 15 16 17 18 19 20
813
FTUS44 KLCH 181735
TAFLFT
TAF
KLFT 181735Z 1818/1918 17010KT P6SM VCSH SCT015 BKN025
     FM190100 16006KT 5SM BR VCSH OVC008
     FM190800 17005KT 3SM BR VCTS OVC005CB
      TEMPO 1908/1912 3SM -SHRA OVC005
     FM191200 18007KT 3SM -SHRA VCTS OVC005CB=

USA.gov is the U.S. government's official web portal to all federal, state and local government web resources and services.